This is the latest recevied weather packets stored in our database for station/object F4FEB-13. If no packets are shown the sender has not sent any weather packets the latest 10 day(s).
| Time | Temp. | Humidity | Pressure | Rain* | Wind** | Luminosity | Snow |
|---|---|---|---|---|---|---|---|
| 1777776566 | 12.22° C | 67% | 1015.8 hPa | 0 mm | - | - | - |
| 1777776266 | 12.78° C | 65% | 1015.9 hPa | 0 mm | - | - | - |
| 1777775966 | 12.78° C | 64% | 1015.8 hPa | 0 mm | - | - | - |
| 1777775666 | 12.78° C | 63% | 1015.8 hPa | 0 mm | - | - | - |
| 1777775366 | 12.22° C | 67% | 1015.8 hPa | 0 mm | - | - | - |
| 1777775066 | 12.22° C | 67% | 1015.8 hPa | 0 mm | - | - | - |
| 1777774466 | 12.22° C | 67% | 1015.8 hPa | 0 mm | - | - | - |
| 1777774166 | 11.67° C | 68% | 1015.8 hPa | 0 mm | - | - | - |
| 1777773266 | 11.67° C | 70% | 1016 hPa | 0 mm | - | - | - |
| 1777772966 | 11.67° C | 69% | 1016.1 hPa | 0 mm | - | - | - |
| 1777772066 | 13.33° C | 63% | 1016.1 hPa | 0 mm | - | - | - |
| 1777771766 | 13.33° C | 63% | 1016.1 hPa | 0 mm | - | - | - |
| 1777767566 | 15° C | 56% | 1016.6 hPa | 0 mm | - | - | - |
| 1777767266 | 15° C | 56% | 1016.4 hPa | 0 mm | - | - | - |
| 1777761566 | 16.11° C | 51% | 1017.1 hPa | 0 mm | - | - | - |
| 1777761266 | 16.11° C | 51% | 1017.2 hPa | 0 mm | - | - | - |
| 1777760966 | 16.11° C | 51% | 1017.2 hPa | 0 mm | - | - | - |
| 1777760666 | 15.56° C | 52% | 1017.1 hPa | 0 mm | - | - | - |
| 1777760366 | 15.56° C | 53% | 1017.2 hPa | 0 mm | - | - | - |
| 1777760066 | 15.56° C | 53% | 1017.3 hPa | 0 mm | - | - | - |
| 1777759766 | 15.56° C | 53% | 1017.3 hPa | 0 mm | - | - | - |
| 1777759466 | 15.56° C | 53% | 1017.3 hPa | 0 mm | - | - | - |
| 1777759169 | 16.11° C | 52% | 1017.4 hPa | 0 mm | - | - | - |
| 1777759166 | 16.11° C | 52% | 1017.4 hPa | 0 mm | - | - | - |
| 1777758866 | 16.11° C | 52% | 1017.4 hPa | 0 mm | - | - | - |
* Rain latest hour (hover to see other rain measurements)
** Current wind speed in m/s (hover to see current wind gust speed)